Time;durP1;ratioP1;P1;durP2;ratioP2;P2;SDS_P1;SDS_P2;PMS_P1;PMS_P2;Temp;Humidity;BMP_temperature;BMP_pressure;BME280_temperature;BME280_humidity;BME280_pressure;Samples;Min_cycle;Max_cycle;Signal;HPM_P1;HPM_P2
2023/10/02 00:03:31;;;;;;;7.38;4.65;;;;;;;;;;5113792;28;20194;-79
2023/10/02 00:05:58;;;;;;;9.13;4.72;;;;;;;;;;5113973;28;20666;-79
2023/10/02 00:08:42;;;;;;;7.28;4.70;;;;;;;;;;5114035;28;20251;-78
2023/10/02 00:14:22;;;;;;;9.45;5.93;;;;;;;;;;5113751;28;20255;-79
2023/10/02 00:16:59;;;;;;;10.40;5.32;;;;;;;;;;5113827;28;20257;-79
2023/10/02 00:19:27;;;;;;;8.20;5.25;;;;;;;;;;5113762;28;20194;-78
2023/10/02 00:21:57;;;;;;;9.52;5.47;;;;;;;;;;5114136;28;20785;-79
2023/10/02 00:24:25;;;;;;;6.93;4.60;;;;;;;;;;5113499;28;21111;-78
2023/10/02 00:26:57;;;;;;;9.85;4.43;;;;;;;;;;5113986;28;20285;-79
2023/10/02 00:29:25;;;;;;;6.00;4.15;;;;;;;;;;5113246;28;20198;-79
2023/10/02 00:31:52;;;;;;;7.32;4.45;;;;;;;;;;5113368;28;20198;-79
2023/10/02 00:34:30;;;;;;;7.40;5.10;;;;;;;;;;5113864;28;20196;-79
2023/10/02 00:36:58;;;;;;;9.43;5.07;;;;;;;;;;5113408;28;20201;-79
2023/10/02 00:39:30;;;;;;;9.77;4.70;;;;;;;;;;5113490;28;20652;-79
2023/10/02 00:42:15;;;;;;;10.00;4.70;;;;;;;;;;5113655;28;20225;-79
2023/10/02 00:44:52;;;;;;;8.70;5.18;;;;;;;;;;5113492;28;20209;-78
2023/10/02 00:47:35;;;;;;;7.18;4.70;;;;;;;;;;5113478;28;20243;-79
2023/10/02 00:50:08;;;;;;;9.10;4.55;;;;;;;;;;5113211;28;20209;-79
2023/10/02 00:52:40;;;;;;;8.18;4.82;;;;;;;;;;5113137;28;20202;-79
2023/10/02 00:55:09;;;;;;;7.82;4.30;;;;;;;;;;5113476;28;20190;-79
2023/10/02 00:57:38;;;;;;;8.68;5.28;;;;;;;;;;5112668;28;20198;-79
2023/10/02 01:00:17;;;;;;;7.47;4.80;;;;;;;;;;5113261;28;20233;-79
2023/10/02 01:02:46;;;;;;;8.33;4.83;;;;;;;;;;5113135;28;20288;-79
2023/10/02 01:05:16;;;;;;;10.00;5.93;;;;;;;;;;5113469;28;20201;-79
2023/10/02 01:07:44;;;;;;;8.63;6.07;;;;;;;;;;5112484;28;20197;-79
2023/10/02 01:10:17;;;;;;;10.45;6.30;;;;;;;;;;5113201;28;20221;-78
2023/10/02 01:12:49;;;;;;;10.17;5.67;;;;;;;;;;5112562;28;20701;-79
2023/10/02 01:15:19;;;;;;;7.67;5.30;;;;;;;;;;5112805;28;20236;-79
2023/10/02 01:17:47;;;;;;;7.23;4.60;;;;;;;;;;5112810;28;20194;-79
2023/10/02 01:20:20;;;;;;;8.73;5.00;;;;;;;;;;5112591;28;20201;-79
2023/10/02 01:22:51;;;;;;;6.80;4.47;;;;;;;;;;5112263;28;20194;-79
2023/10/02 01:25:23;;;;;;;8.48;4.85;;;;;;;;;;5112336;28;20208;-79
2023/10/02 01:27:55;;;;;;;10.27;5.57;;;;;;;;;;5112347;28;20556;-78
2023/10/02 01:30:23;;;;;;;9.00;4.80;;;;;;;;;;5112468;28;20193;-79
2023/10/02 01:35:36;;;;;;;8.27;5.23;;;;;;;;;;5112003;28;20197;-78
2023/10/02 01:38:06;;;;;;;7.88;5.10;;;;;;;;;;5112238;28;20685;-78
2023/10/02 01:40:35;;;;;;;8.97;4.50;;;;;;;;;;5111711;28;20719;-78
2023/10/02 01:43:12;;;;;;;6.40;4.43;;;;;;;;;;5112282;28;20276;-78
2023/10/02 01:45:42;;;;;;;6.78;4.13;;;;;;;;;;5112503;28;20190;-78
2023/10/02 01:48:12;;;;;;;6.87;4.03;;;;;;;;;;5112032;28;20198;-77
2023/10/02 01:50:40;;;;;;;5.50;3.63;;;;;;;;;;5111912;28;20216;-78
2023/10/02 01:53:06;;;;;;;6.47;4.00;;;;;;;;;;5111799;28;20230;-78
2023/10/02 01:55:36;;;;;;;6.50;4.27;;;;;;;;;;5111677;28;20566;-79
2023/10/02 01:58:17;;;;;;;8.23;4.00;;;;;;;;;;5110935;28;20292;-78
2023/10/02 02:00:46;;;;;;;7.63;4.23;;;;;;;;;;5091576;28;20206;-78
2023/10/02 02:03:17;;;;;;;5.80;3.90;;;;;;;;;;5091930;28;20195;-78
2023/10/02 02:05:46;;;;;;;7.57;4.40;;;;;;;;;;5091495;28;20292;-79
2023/10/02 02:08:22;;;;;;;7.03;4.27;;;;;;;;;;5091668;28;20276;-78
2023/10/02 02:10:53;;;;;;;6.10;4.07;;;;;;;;;;5091075;28;20256;-78
2023/10/02 02:13:21;;;;;;;9.80;4.90;;;;;;;;;;5091481;28;20647;-78
2023/10/02 02:15:51;;;;;;;8.60;4.83;;;;;;;;;;5091455;28;20710;-79
2023/10/02 02:18:20;;;;;;;8.20;4.33;;;;;;;;;;5099509;28;20543;-78
2023/10/02 02:20:58;;;;;;;8.13;4.27;;;;;;;;;;5111428;28;20194;-79
2023/10/02 02:23:27;;;;;;;7.57;4.63;;;;;;;;;;5111868;28;20193;-78
2023/10/02 02:25:56;;;;;;;7.13;4.30;;;;;;;;;;5111486;28;20600;-77
2023/10/02 02:28:23;;;;;;;6.93;4.50;;;;;;;;;;5111646;28;20810;-78
2023/10/02 02:30:50;;;;;;;7.90;4.10;;;;;;;;;;5111762;28;20243;-78
2023/10/02 02:33:34;;;;;;;7.00;4.00;;;;;;;;;;5114460;28;20215;-78
2023/10/02 02:36:05;;;;;;;7.87;4.20;;;;;;;;;;5116165;28;20280;-78
2023/10/02 02:38:34;;;;;;;6.80;4.17;;;;;;;;;;5115416;28;20255;-78
2023/10/02 02:41:09;;;;;;;7.50;4.50;;;;;;;;;;5115525;28;20240;-79
2023/10/02 02:43:38;;;;;;;9.40;5.00;;;;;;;;;;5115664;28;20200;-79
2023/10/02 02:46:06;;;;;;;8.80;4.80;;;;;;;;;;5115837;28;20197;-78
2023/10/02 02:48:43;;;;;;;10.30;4.90;;;;;;;;;;5116051;28;20225;-78
2023/10/02 02:51:18;;;;;;;9.40;5.30;;;;;;;;;;5115165;28;20543;-79
2023/10/02 02:53:46;;;;;;;9.17;4.80;;;;;;;;;;5114915;28;20236;-78
2023/10/02 02:56:22;;;;;;;10.63;4.50;;;;;;;;;;5115420;28;20190;-79
2023/10/02 02:58:50;;;;;;;8.30;4.70;;;;;;;;;;5115752;28;20201;-78
2023/10/02 03:01:23;;;;;;;7.50;4.83;;;;;;;;;;5115279;28;20778;-79
2023/10/02 03:03:50;;;;;;;7.67;4.90;;;;;;;;;;5115272;28;20202;-78
2023/10/02 03:06:20;;;;;;;8.40;4.80;;;;;;;;;;5115691;28;20202;-79
2023/10/02 03:08:51;;;;;;;9.80;5.43;;;;;;;;;;5114812;28;20198;-78
2023/10/02 03:11:21;;;;;;;9.77;5.57;;;;;;;;;;5115529;28;20202;-79
2023/10/02 03:13:49;;;;;;;9.00;4.87;;;;;;;;;;5114988;28;20190;-78
2023/10/02 03:16:18;;;;;;;10.50;5.50;;;;;;;;;;5114915;28;20328;-79
2023/10/02 03:18:48;;;;;;;8.33;5.00;;;;;;;;;;5114935;28;20201;-79
2023/10/02 03:21:23;;;;;;;9.00;5.03;;;;;;;;;;5114913;28;20225;-79
2023/10/02 03:23:51;;;;;;;8.57;4.60;;;;;;;;;;5114911;28;20193;-78
2023/10/02 03:26:37;;;;;;;7.87;4.40;;;;;;;;;;5114868;28;20622;-79
2023/10/02 03:29:05;;;;;;;8.90;4.87;;;;;;;;;;5114744;28;20204;-79
2023/10/02 03:31:36;;;;;;;6.97;4.03;;;;;;;;;;5115009;28;20293;-79
2023/10/02 03:34:24;;;;;;;7.20;4.60;;;;;;;;;;5114943;28;20198;-79
2023/10/02 03:36:51;;;;;;;7.40;4.37;;;;;;;;;;5114110;28;20190;-79
2023/10/02 03:39:51;;;;;;;8.07;4.27;;;;;;;;;;5115095;28;20337;-79
2023/10/02 03:42:14;;;;;;;6.77;3.83;;;;;;;;;;5113993;28;20221;-79
2023/10/02 03:44:42;;;;;;;9.17;4.27;;;;;;;;;;5114266;28;20639;-79
2023/10/02 03:47:12;;;;;;;6.90;4.33;;;;;;;;;;5114212;28;20198;-78
2023/10/02 03:49:40;;;;;;;7.50;4.37;;;;;;;;;;5114677;28;20685;-79
2023/10/02 03:52:07;;;;;;;9.30;4.90;;;;;;;;;;5114548;28;20198;-79
2023/10/02 03:54:35;;;;;;;7.23;4.60;;;;;;;;;;5114247;28;20225;-78
2023/10/02 03:57:02;;;;;;;6.67;4.40;;;;;;;;;;5114422;28;20229;-79
2023/10/02 03:59:32;;;;;;;10.73;4.67;;;;;;;;;;5114412;28;20202;-79
2023/10/02 04:04:41;;;;;;;9.27;4.30;;;;;;;;;;5113865;28;20692;-79
2023/10/02 04:07:10;;;;;;;11.67;4.70;;;;;;;;;;5113904;28;20201;-79
2023/10/02 04:09:37;;;;;;;8.10;4.60;;;;;;;;;;5114324;28;20224;-79
2023/10/02 04:12:06;;;;;;;9.20;4.63;;;;;;;;;;5114121;28;20674;-79
2023/10/02 04:14:38;;;;;;;10.80;4.90;;;;;;;;;;5114216;28;20200;-79
2023/10/02 04:17:13;;;;;;;7.03;4.83;;;;;;;;;;5114269;28;20235;-78
2023/10/02 04:19:49;;;;;;;7.77;4.60;;;;;;;;;;5113652;28;20236;-79
2023/10/02 04:22:19;;;;;;;9.70;5.07;;;;;;;;;;5113993;28;20654;-78
2023/10/02 04:24:54;;;;;;;12.03;5.20;;;;;;;;;;5113680;28;20372;-79
2023/10/02 04:27:26;;;;;;;8.47;4.63;;;;;;;;;;5113869;28;20254;-79
2023/10/02 04:32:49;;;;;;;7.90;4.90;;;;;;;;;;5102565;28;20632;-79
2023/10/02 04:37:59;;;;;;;8.80;4.93;;;;;;;;;;5113825;28;20280;-79
2023/10/02 04:40:37;;;;;;;9.27;4.93;;;;;;;;;;5113568;28;20196;-79
2023/10/02 04:43:19;;;;;;;10.67;5.00;;;;;;;;;;5113245;28;20229;-79
2023/10/02 04:45:48;;;;;;;8.57;4.43;;;;;;;;;;5113845;28;20208;-78
2023/10/02 04:48:14;;;;;;;8.00;4.70;;;;;;;;;;5113305;28;20589;-78
2023/10/02 04:50:53;;;;;;;6.37;4.43;;;;;;;;;;5113331;28;20263;-78
2023/10/02 04:53:22;;;;;;;11.17;5.07;;;;;;;;;;5113269;28;20201;-79
2023/10/02 04:55:57;;;;;;;8.87;4.67;;;;;;;;;;5111888;28;20584;-78
2023/10/02 04:58:27;;;;;;;9.97;5.33;;;;;;;;;;5113218;28;20243;-78
2023/10/02 05:03:49;;;;;;;9.17;5.00;;;;;;;;;;5112603;28;20235;-78
2023/10/02 05:06:16;;;;;;;7.87;4.83;;;;;;;;;;5112968;28;20197;-79
2023/10/02 05:11:26;;;;;;;9.53;4.60;;;;;;;;;;5093095;28;20209;-79
2023/10/02 05:13:59;;;;;;;7.13;4.23;;;;;;;;;;5102863;28;20258;-79
2023/10/02 05:16:32;;;;;;;6.53;4.30;;;;;;;;;;5092600;28;20238;-79
2023/10/02 05:18:59;;;;;;;9.43;4.90;;;;;;;;;;5105858;28;20198;-79
2023/10/02 05:21:38;;;;;;;6.77;4.37;;;;;;;;;;5112848;28;20189;-79
2023/10/02 05:24:06;;;;;;;11.33;4.80;;;;;;;;;;5112587;28;20288;-80
2023/10/02 05:26:34;;;;;;;7.20;4.27;;;;;;;;;;5112195;28;20292;-79
2023/10/02 05:29:01;;;;;;;8.13;4.60;;;;;;;;;;5112500;28;20198;-80
2023/10/02 05:31:30;;;;;;;8.10;4.87;;;;;;;;;;5112480;28;20274;-80
2023/10/02 05:33:58;;;;;;;10.23;4.80;;;;;;;;;;5111762;28;20229;-80
2023/10/02 05:36:29;;;;;;;10.57;4.43;;;;;;;;;;5112683;28;20197;-80
2023/10/02 05:39:27;;;;;;;7.33;4.47;;;;;;;;;;5112587;28;20194;-80
2023/10/02 05:41:56;;;;;;;8.53;4.80;;;;;;;;;;5111379;28;20228;-79
2023/10/02 05:44:24;;;;;;;7.03;5.17;;;;;;;;;;5110963;28;20213;-79
2023/10/02 05:47:04;;;;;;;12.17;5.23;;;;;;;;;;5108882;28;20210;-79
2023/10/02 05:49:32;;;;;;;11.07;4.70;;;;;;;;;;5103471;28;20265;-79
2023/10/02 05:52:00;;;;;;;10.07;5.30;;;;;;;;;;5092490;28;20279;-78
2023/10/02 05:54:29;;;;;;;10.07;5.23;;;;;;;;;;5106463;28;20682;-78
2023/10/02 05:57:08;;;;;;;10.93;4.83;;;;;;;;;;5102005;28;20659;-78
2023/10/02 05:59:45;;;;;;;12.00;5.70;;;;;;;;;;5107291;28;20235;-79
2023/10/02 06:02:14;;;;;;;11.10;5.40;;;;;;;;;;5110773;28;20592;-78
2023/10/02 06:04:47;;;;;;;10.20;4.80;;;;;;;;;;5112042;28;20194;-78
2023/10/02 06:07:19;;;;;;;9.47;5.27;;;;;;;;;;5110824;28;20229;-78
2023/10/02 06:09:46;;;;;;;11.70;5.50;;;;;;;;;;5111333;28;20865;-78
2023/10/02 06:12:14;;;;;;;10.57;5.37;;;;;;;;;;5111728;28;20236;-78
2023/10/02 06:14:42;;;;;;;10.00;5.37;;;;;;;;;;5111585;28;20194;-77
2023/10/02 06:17:13;;;;;;;10.63;5.63;;;;;;;;;;5110965;28;20284;-78
2023/10/02 06:19:44;;;;;;;10.90;5.50;;;;;;;;;;5111356;28;20225;-78
2023/10/02 06:22:13;;;;;;;11.37;5.80;;;;;;;;;;5111343;28;20233;-79
2023/10/02 06:24:40;;;;;;;11.63;5.43;;;;;;;;;;5111273;28;20193;-78
2023/10/02 06:27:13;;;;;;;11.37;5.53;;;;;;;;;;5111549;28;20197;-78
2023/10/02 06:29:44;;;;;;;8.93;5.47;;;;;;;;;;5111548;28;20369;-78
2023/10/02 06:32:14;;;;;;;11.70;5.73;;;;;;;;;;5111118;28;20198;-78
2023/10/02 06:34:44;;;;;;;11.77;5.53;;;;;;;;;;5111438;28;20201;-78
2023/10/02 06:37:13;;;;;;;10.40;5.67;;;;;;;;;;5111603;28;20712;-77
2023/10/02 06:39:42;;;;;;;9.60;5.70;;;;;;;;;;5111223;28;20204;-78
2023/10/02 06:42:09;;;;;;;9.63;5.73;;;;;;;;;;5111110;28;20328;-78
2023/10/02 06:44:52;;;;;;;9.50;5.37;;;;;;;;;;5111186;28;20221;-77
2023/10/02 06:47:21;;;;;;;10.47;5.87;;;;;;;;;;5111237;28;20297;-79
2023/10/02 06:49:51;;;;;;;11.03;6.50;;;;;;;;;;5111252;28;20190;-78
2023/10/02 06:52:20;;;;;;;9.67;5.87;;;;;;;;;;5111128;28;20198;-77
2023/10/02 06:54:49;;;;;;;10.45;6.28;;;;;;;;;;5111005;28;20250;-78
2023/10/02 06:57:17;;;;;;;12.65;6.72;;;;;;;;;;5110703;28;20198;-77
2023/10/02 06:59:52;;;;;;;10.75;6.40;;;;;;;;;;5110283;28;20723;-79
2023/10/02 07:02:23;;;;;;;10.57;6.65;;;;;;;;;;5110981;28;20249;-78
2023/10/02 07:04:50;;;;;;;12.35;6.95;;;;;;;;;;5110623;28;20850;-79
2023/10/02 07:07:24;;;;;;;18.15;7.50;;;;;;;;;;5110771;28;20225;-78
2023/10/02 07:09:52;;;;;;;15.57;7.43;;;;;;;;;;5111080;28;20212;-78
2023/10/02 07:12:20;;;;;;;13.43;6.70;;;;;;;;;;5110875;28;20202;-78
2023/10/02 07:14:48;;;;;;;17.27;7.28;;;;;;;;;;5110543;28;20201;-79
2023/10/02 07:17:18;;;;;;;16.33;7.68;;;;;;;;;;5110933;28;20229;-78
2023/10/02 07:19:50;;;;;;;15.05;7.65;;;;;;;;;;5092353;28;20296;-79
2023/10/02 07:22:18;;;;;;;15.23;7.35;;;;;;;;;;5094115;28;20229;-78
2023/10/02 07:24:47;;;;;;;12.82;7.30;;;;;;;;;;5093789;28;20238;-78
2023/10/02 07:27:23;;;;;;;12.75;7.30;;;;;;;;;;5094151;28;20202;-78
2023/10/02 07:29:53;;;;;;;13.98;7.70;;;;;;;;;;5093912;28;20198;-78
2023/10/02 07:32:20;;;;;;;17.92;8.05;;;;;;;;;;5094513;28;20202;-79
2023/10/02 07:34:48;;;;;;;19.42;8.15;;;;;;;;;;5093815;28;20198;-79
2023/10/02 07:37:16;;;;;;;14.13;7.60;;;;;;;;;;5093779;28;20205;-79
2023/10/02 07:39:43;;;;;;;14.38;7.93;;;;;;;;;;5094193;28;20194;-80
2023/10/02 07:42:12;;;;;;;14.10;7.00;;;;;;;;;;5093691;28;20281;-78
2023/10/02 07:44:41;;;;;;;13.63;7.43;;;;;;;;;;5093733;28;20202;-79
2023/10/02 07:47:11;;;;;;;12.48;7.40;;;;;;;;;;5093841;28;20224;-80
2023/10/02 07:49:39;;;;;;;16.52;7.82;;;;;;;;;;5113424;28;20233;-79
2023/10/02 07:52:08;;;;;;;13.95;7.32;;;;;;;;;;5114139;28;20274;-78
2023/10/02 07:54:45;;;;;;;13.60;7.30;;;;;;;;;;5114252;28;20288;-79
2023/10/02 07:57:14;;;;;;;14.02;7.30;;;;;;;;;;5113967;28;20194;-78
2023/10/02 07:59:43;;;;;;;16.08;8.10;;;;;;;;;;5113658;28;20666;-80
2023/10/02 08:02:23;;;;;;;13.20;7.70;;;;;;;;;;5114000;28;20198;-79
2023/10/02 08:04:51;;;;;;;15.60;7.85;;;;;;;;;;5114000;28;20276;-80
2023/10/02 08:07:19;;;;;;;18.65;8.05;;;;;;;;;;5113901;27;20595;-80
2023/10/02 08:09:48;;;;;;;18.45;8.65;;;;;;;;;;5113666;28;20222;-80
2023/10/02 08:12:30;;;;;;;14.82;8.30;;;;;;;;;;5113877;28;20305;-81
2023/10/02 08:15:00;;;;;;;17.42;8.80;;;;;;;;;;5111849;28;20194;-80
2023/10/02 08:20:19;;;;;;;14.35;8.13;;;;;;;;;;5113377;28;20202;-80
2023/10/02 08:22:46;;;;;;;15.75;8.05;;;;;;;;;;5113747;28;20240;-79
2023/10/02 08:25:14;;;;;;;14.63;8.10;;;;;;;;;;5112266;28;20201;-80
2023/10/02 08:27:44;;;;;;;13.23;8.07;;;;;;;;;;5113120;28;20225;-80
2023/10/02 08:30:27;;;;;;;14.35;8.25;;;;;;;;;;5112942;27;20288;-79
2023/10/02 08:32:54;;;;;;;13.43;8.50;;;;;;;;;;5113130;28;20202;-80
2023/10/02 08:35:24;;;;;;;14.13;7.47;;;;;;;;;;5113065;28;20272;-80
2023/10/02 08:37:54;;;;;;;15.80;8.02;;;;;;;;;;5113050;28;20615;-80
2023/10/02 08:40:21;;;;;;;12.80;7.00;;;;;;;;;;5113242;28;20231;-80
2023/10/02 08:42:52;;;;;;;14.73;7.63;;;;;;;;;;5112820;28;20308;-79
2023/10/02 08:45:20;;;;;;;14.00;7.93;;;;;;;;;;5112884;28;20550;-80
2023/10/02 08:47:48;;;;;;;13.15;7.22;;;;;;;;;;5113132;28;20285;-81
2023/10/02 08:50:16;;;;;;;14.85;7.47;;;;;;;;;;5113105;28;20194;-80
2023/10/02 08:52:50;;;;;;;13.40;7.90;;;;;;;;;;5112764;28;20277;-80
2023/10/02 08:55:51;;;;;;;11.82;7.05;;;;;;;;;;5112927;28;20238;-80
2023/10/02 08:58:22;;;;;;;14.93;7.10;;;;;;;;;;5112594;28;20201;-81
2023/10/02 09:03:48;;;;;;;12.48;7.45;;;;;;;;;;5111797;28;20240;-80
2023/10/02 09:06:30;;;;;;;11.60;7.97;;;;;;;;;;5113234;28;20212;-80
2023/10/02 09:11:42;;;;;;;11.07;7.18;;;;;;;;;;5112026;28;20692;-81
2023/10/02 09:14:16;;;;;;;12.57;7.75;;;;;;;;;;5112346;28;20225;-81
2023/10/02 09:16:45;;;;;;;10.52;7.63;;;;;;;;;;5112179;28;20221;-81
2023/10/02 09:22:06;;;;;;;12.27;7.75;;;;;;;;;;5112240;28;20201;-81
2023/10/02 09:24:34;;;;;;;10.43;6.72;;;;;;;;;;5111879;28;20225;-81
2023/10/02 09:27:20;;;;;;;11.25;8.00;;;;;;;;;;5112270;28;20220;-83
2023/10/02 09:30:15;;;;;;;14.57;7.47;;;;;;;;;;5112625;28;20196;-82
2023/10/02 09:32:47;;;;;;;13.80;7.15;;;;;;;;;;5112047;28;20205;-81
2023/10/02 09:35:21;;;;;;;13.10;6.82;;;;;;;;;;5111746;28;20193;-80
2023/10/02 09:37:55;;;;;;;9.93;6.75;;;;;;;;;;5112175;28;20199;-80
2023/10/02 09:40:23;;;;;;;14.57;7.55;;;;;;;;;;5111668;28;20651;-82
2023/10/02 09:43:00;;;;;;;12.52;7.43;;;;;;;;;;5111445;28;20225;-81
2023/10/02 09:45:35;;;;;;;11.05;7.15;;;;;;;;;;5111907;28;20197;-81
2023/10/02 09:48:06;;;;;;;11.63;6.55;;;;;;;;;;5111838;28;20655;-80
2023/10/02 09:50:35;;;;;;;18.73;6.43;;;;;;;;;;5111911;28;20193;-81
2023/10/02 09:53:08;;;;;;;8.20;6.00;;;;;;;;;;5111632;28;20237;-81
2023/10/02 09:55:42;;;;;;;9.95;6.22;;;;;;;;;;5110739;28;20198;-82
2023/10/02 09:58:26;;;;;;;10.57;5.78;;;;;;;;;;5111538;28;20285;-81
2023/10/02 10:01:36;;;;;;;10.98;6.43;;;;;;;;;;5111207;28;20694;-81
2023/10/02 10:07:32;;;;;;;9.82;6.35;;;;;;;;;;5111827;28;20217;-81
2023/10/02 10:10:15;;;;;;;8.95;5.85;;;;;;;;;;5098060;28;20233;-81
2023/10/02 10:12:54;;;;;;;10.65;6.30;;;;;;;;;;5091372;28;20667;-81
2023/10/02 10:15:25;;;;;;;10.50;6.00;;;;;;;;;;5090890;28;20236;-82
2023/10/02 10:17:58;;;;;;;9.02;6.38;;;;;;;;;;5095796;28;20201;-81
2023/10/02 10:20:26;;;;;;;12.00;6.20;;;;;;;;;;5111520;28;20193;-81
2023/10/02 10:22:55;;;;;;;8.90;5.97;;;;;;;;;;5110880;28;20600;-82
2023/10/02 10:25:40;;;;;;;8.85;6.20;;;;;;;;;;5111141;28;20811;-82
2023/10/02 10:28:09;;;;;;;10.40;6.32;;;;;;;;;;5105613;28;20649;-81
2023/10/02 10:30:39;;;;;;;10.93;6.93;;;;;;;;;;5090988;28;20205;-80
2023/10/02 10:33:27;;;;;;;10.90;6.68;;;;;;;;;;5090790;28;20233;-81
2023/10/02 10:35:55;;;;;;;10.40;6.82;;;;;;;;;;5090985;28;20198;-82
2023/10/02 10:38:36;;;;;;;10.60;6.85;;;;;;;;;;5090334;28;20679;-81
2023/10/02 10:41:06;;;;;;;9.65;6.50;;;;;;;;;;5091256;28;20216;-81
2023/10/02 10:43:52;;;;;;;10.15;6.93;;;;;;;;;;5090675;28;20226;-81
2023/10/02 10:46:22;;;;;;;11.00;6.88;;;;;;;;;;5090773;28;20202;-82
2023/10/02 10:48:59;;;;;;;11.35;6.70;;;;;;;;;;5091273;28;20195;-82
2023/10/02 10:51:33;;;;;;;10.55;6.38;;;;;;;;;;5090582;28;20205;-81
2023/10/02 10:54:13;;;;;;;9.18;6.80;;;;;;;;;;5093047;28;20201;-82
2023/10/02 10:56:44;;;;;;;9.48;6.07;;;;;;;;;;5094706;28;20194;-82
2023/10/02 10:59:12;;;;;;;12.50;6.38;;;;;;;;;;5094325;28;20190;-82
2023/10/02 11:01:39;;;;;;;11.90;6.50;;;;;;;;;;5094817;28;20317;-81
2023/10/02 11:04:07;;;;;;;9.68;6.40;;;;;;;;;;5113383;28;20285;-83
2023/10/02 11:06:43;;;;;;;9.18;6.45;;;;;;;;;;5114140;28;20225;-84
2023/10/02 11:09:16;;;;;;;10.25;6.47;;;;;;;;;;5112300;28;20197;-83
2023/10/02 11:11:50;;;;;;;11.18;6.05;;;;;;;;;;5113621;28;20189;-83
2023/10/02 11:14:21;;;;;;;11.18;6.28;;;;;;;;;;5113903;28;20552;-83
2023/10/02 11:16:52;;;;;;;9.23;6.07;;;;;;;;;;5111569;28;20233;-82
2023/10/02 11:19:35;;;;;;;8.20;5.50;;;;;;;;;;5113654;28;20217;-83
2023/10/02 11:22:17;;;;;;;10.77;5.95;;;;;;;;;;5112859;28;20198;-83
2023/10/02 11:24:45;;;;;;;8.40;5.22;;;;;;;;;;5113103;28;20223;-84
2023/10/02 11:27:15;;;;;;;9.23;6.00;;;;;;;;;;5113615;28;20674;-83
2023/10/02 11:29:42;;;;;;;6.93;5.18;;;;;;;;;;5113269;27;20658;-83
2023/10/02 11:32:22;;;;;;;8.20;5.30;;;;;;;;;;5113462;28;20288;-83
2023/10/02 11:34:50;;;;;;;8.73;5.22;;;;;;;;;;5110657;28;20956;-83
2023/10/02 11:37:23;;;;;;;8.88;5.43;;;;;;;;;;5113745;28;20186;-84
2023/10/02 11:39:51;;;;;;;11.00;5.30;;;;;;;;;;5113487;28;20220;-82
2023/10/02 11:42:22;;;;;;;8.43;5.38;;;;;;;;;;5113083;28;20616;-83
2023/10/02 11:44:50;;;;;;;9.25;5.40;;;;;;;;;;5111069;28;20743;-83
2023/10/02 11:47:17;;;;;;;8.70;5.28;;;;;;;;;;5114263;28;20197;-83
2023/10/02 11:49:44;;;;;;;8.40;5.75;;;;;;;;;;5113531;28;20662;-83
2023/10/02 11:52:12;;;;;;;8.93;5.68;;;;;;;;;;5113997;28;20205;-84
2023/10/02 11:54:41;;;;;;;8.82;5.43;;;;;;;;;;5113884;28;20197;-83
2023/10/02 11:57:12;;;;;;;10.32;5.90;;;;;;;;;;5114101;28;20225;-83
2023/10/02 11:59:41;;;;;;;14.80;7.20;;;;;;;;;;5113903;28;20200;-83
2023/10/02 12:02:10;;;;;;;8.55;5.72;;;;;;;;;;5114169;28;20202;-83
2023/10/02 12:04:38;;;;;;;7.97;5.68;;;;;;;;;;5097926;28;20231;-83
2023/10/02 12:07:05;;;;;;;9.27;5.65;;;;;;;;;;5096697;28;20682;-82
2023/10/02 12:09:34;;;;;;;7.55;5.18;;;;;;;;;;5111673;28;20259;-83
2023/10/02 12:12:02;;;;;;;7.18;5.18;;;;;;;;;;5113683;28;20201;-84
2023/10/02 12:14:30;;;;;;;8.13;5.50;;;;;;;;;;5110988;28;20861;-84
2023/10/02 12:16:58;;;;;;;8.00;5.60;;;;;;;;;;5101685;28;20317;-83
2023/10/02 12:19:26;;;;;;;7.07;5.25;;;;;;;;;;5110450;28;20198;-83
2023/10/02 12:21:53;;;;;;;9.35;4.88;;;;;;;;;;5113277;28;20206;-83
2023/10/02 12:24:21;;;;;;;7.10;4.90;;;;;;;;;;5113483;28;20743;-83
2023/10/02 12:26:49;;;;;;;6.78;5.05;;;;;;;;;;5113187;28;20219;-82
2023/10/02 12:29:19;;;;;;;6.18;4.35;;;;;;;;;;5114014;28;20202;-83
2023/10/02 12:31:46;;;;;;;7.50;4.53;;;;;;;;;;5113175;28;20735;-83
2023/10/02 12:34:14;;;;;;;8.52;5.35;;;;;;;;;;5112902;28;20254;-84
2023/10/02 12:36:44;;;;;;;8.20;5.45;;;;;;;;;;5113869;28;20205;-83
2023/10/02 12:39:13;;;;;;;6.90;4.93;;;;;;;;;;5113693;28;20197;-83
2023/10/02 12:41:42;;;;;;;5.05;3.75;;;;;;;;;;5113541;28;20203;-84
2023/10/02 12:44:09;;;;;;;6.63;4.30;;;;;;;;;;5113099;28;20304;-84
2023/10/02 12:46:43;;;;;;;8.20;4.45;;;;;;;;;;5113207;28;20205;-83
2023/10/02 12:49:13;;;;;;;6.88;4.20;;;;;;;;;;5112850;28;20692;-83
2023/10/02 12:51:40;;;;;;;6.93;4.55;;;;;;;;;;5113007;28;20209;-83
2023/10/02 12:54:09;;;;;;;6.30;4.22;;;;;;;;;;5112723;28;20567;-83
2023/10/02 12:56:38;;;;;;;6.82;4.13;;;;;;;;;;5112710;28;20809;-83
2023/10/02 12:59:06;;;;;;;7.03;4.43;;;;;;;;;;5112284;28;20209;-83
2023/10/02 13:01:33;;;;;;;6.90;4.07;;;;;;;;;;5112754;28;20282;-82
2023/10/02 13:04:02;;;;;;;5.90;4.07;;;;;;;;;;5112264;28;20267;-83
2023/10/02 13:06:30;;;;;;;8.43;4.13;;;;;;;;;;5112889;28;20731;-83
2023/10/02 13:09:04;;;;;;;8.02;4.13;;;;;;;;;;5112932;28;20190;-83
2023/10/02 13:11:32;;;;;;;6.38;3.95;;;;;;;;;;5112466;28;20198;-83
2023/10/02 13:13:59;;;;;;;5.50;3.90;;;;;;;;;;5112635;28;20197;-83
2023/10/02 13:16:26;;;;;;;6.63;3.60;;;;;;;;;;5111655;28;20608;-83
2023/10/02 13:18:55;;;;;;;8.77;3.67;;;;;;;;;;5112651;28;20256;-83
2023/10/02 13:21:24;;;;;;;5.50;3.95;;;;;;;;;;5112460;28;20193;-82
2023/10/02 13:23:51;;;;;;;8.80;3.95;;;;;;;;;;5112773;28;20197;-83
2023/10/02 13:26:19;;;;;;;4.72;3.53;;;;;;;;;;5112066;28;20285;-82
2023/10/02 13:28:52;;;;;;;5.22;3.40;;;;;;;;;;5111821;28;20201;-83
2023/10/02 13:31:19;;;;;;;4.70;3.30;;;;;;;;;;5111345;28;20201;-83
2023/10/02 13:33:51;;;;;;;6.75;3.33;;;;;;;;;;5112189;28;20205;-82
2023/10/02 13:36:21;;;;;;;5.50;3.92;;;;;;;;;;5111355;28;20579;-83
2023/10/02 13:38:51;;;;;;;4.75;3.53;;;;;;;;;;5112314;28;20201;-83
2023/10/02 13:41:18;;;;;;;7.45;3.83;;;;;;;;;;5112470;28;20278;-84
2023/10/02 13:43:48;;;;;;;9.02;3.88;;;;;;;;;;5111663;28;20652;-83
2023/10/02 13:46:16;;;;;;;5.43;3.15;;;;;;;;;;5110692;28;20225;-82
2023/10/02 13:48:43;;;;;;;5.82;3.70;;;;;;;;;;5111993;28;20674;-83
2023/10/02 13:51:10;;;;;;;4.75;3.35;;;;;;;;;;5112160;28;20221;-83
2023/10/02 13:53:38;;;;;;;7.32;3.40;;;;;;;;;;5111646;28;20293;-83
2023/10/02 13:56:10;;;;;;;5.35;3.45;;;;;;;;;;5111754;28;20776;-83
2023/10/02 13:58:38;;;;;;;5.07;3.20;;;;;;;;;;5111717;28;20210;-84
2023/10/02 14:01:06;;;;;;;7.45;3.42;;;;;;;;;;5110962;28;20236;-83
2023/10/02 14:03:34;;;;;;;6.55;3.45;;;;;;;;;;5111360;28;20196;-83
2023/10/02 14:06:02;;;;;;;5.00;3.25;;;;;;;;;;5112106;28;20324;-82
2023/10/02 14:08:29;;;;;;;4.57;3.30;;;;;;;;;;5111676;28;20873;-83
2023/10/02 14:10:57;;;;;;;5.15;3.20;;;;;;;;;;5111277;28;20201;-83
2023/10/02 14:13:26;;;;;;;5.28;3.40;;;;;;;;;;5111486;28;20240;-83
2023/10/02 14:15:54;;;;;;;7.13;3.75;;;;;;;;;;5111102;28;20959;-83
2023/10/02 14:18:23;;;;;;;4.68;3.47;;;;;;;;;;5111312;28;20205;-83
2023/10/02 14:20:59;;;;;;;6.43;3.63;;;;;;;;;;5105171;28;20195;-83
2023/10/02 14:23:28;;;;;;;7.05;3.00;;;;;;;;;;5091192;28;20256;-83
2023/10/02 14:25:55;;;;;;;6.25;3.78;;;;;;;;;;5110600;28;20273;-83
2023/10/02 14:28:23;;;;;;;8.93;3.40;;;;;;;;;;5111091;28;20247;-82
2023/10/02 14:30:52;;;;;;;5.10;3.15;;;;;;;;;;5111533;28;20189;-82
2023/10/02 14:33:19;;;;;;;4.88;3.38;;;;;;;;;;5100460;28;20701;-83
2023/10/02 14:35:47;;;;;;;4.65;3.30;;;;;;;;;;5091549;28;20194;-82
2023/10/02 14:38:14;;;;;;;5.20;3.40;;;;;;;;;;5091001;28;20415;-83
2023/10/02 14:40:41;;;;;;;6.75;3.88;;;;;;;;;;5092962;28;20550;-82
2023/10/02 14:43:11;;;;;;;4.75;3.22;;;;;;;;;;5111160;28;20537;-83
2023/10/02 14:45:39;;;;;;;6.28;3.15;;;;;;;;;;5111203;28;20229;-83
2023/10/02 14:48:08;;;;;;;5.07;3.15;;;;;;;;;;5111211;28;20208;-82
2023/10/02 14:50:37;;;;;;;4.72;3.08;;;;;;;;;;5102876;28;20229;-82
2023/10/02 14:53:08;;;;;;;5.55;3.28;;;;;;;;;;5091084;28;20206;-82
2023/10/02 14:55:38;;;;;;;4.28;3.30;;;;;;;;;;5090827;28;20225;-82
2023/10/02 14:58:07;;;;;;;8.43;3.10;;;;;;;;;;5090396;28;20260;-82
2023/10/02 15:00:35;;;;;;;5.15;3.28;;;;;;;;;;5090324;28;20703;-82
2023/10/02 15:03:02;;;;;;;4.97;3.20;;;;;;;;;;5090567;28;20198;-83
2023/10/02 15:05:31;;;;;;;5.93;3.25;;;;;;;;;;5106283;28;20228;-83
2023/10/02 15:08:00;;;;;;;4.22;2.88;;;;;;;;;;5111178;28;20225;-83
2023/10/02 15:10:30;;;;;;;5.72;3.38;;;;;;;;;;5107771;28;20647;-82
2023/10/02 15:12:57;;;;;;;6.03;2.90;;;;;;;;;;5098594;28;20271;-82
2023/10/02 15:15:28;;;;;;;4.70;3.00;;;;;;;;;;5090668;28;20233;-82
2023/10/02 15:17:55;;;;;;;6.30;3.22;;;;;;;;;;5102699;28;20202;-82
2023/10/02 15:20:24;;;;;;;5.28;2.80;;;;;;;;;;5111105;28;20240;-83
2023/10/02 15:22:54;;;;;;;5.75;3.20;;;;;;;;;;5111117;28;20285;-83
2023/10/02 15:25:21;;;;;;;5.25;3.00;;;;;;;;;;5110798;28;20225;-82
2023/10/02 15:27:49;;;;;;;6.75;2.97;;;;;;;;;;5110551;28;20201;-82
2023/10/02 15:30:17;;;;;;;5.07;2.75;;;;;;;;;;5101929;28;20256;-83
2023/10/02 15:32:45;;;;;;;4.50;2.97;;;;;;;;;;5090042;28;20994;-83
2023/10/02 15:35:15;;;;;;;5.65;2.80;;;;;;;;;;5090007;28;20675;-82
2023/10/02 15:37:43;;;;;;;5.18;3.20;;;;;;;;;;5090672;28;20202;-82